Time;durP1;ratioP1;P1;durP2;ratioP2;P2;SDS_P1;SDS_P2;PMS_P1;PMS_P2;Temp;Humidity;BMP_temperature;BMP_pressure;BME280_temperature;BME280_humidity;BME280_pressure;Samples;Min_cycle;Max_cycle;Signal;HPM_P1;HPM_P2
2023/09/29 00:00:15;;;;;;;;;;;;;;;18.47;62.79;101273.59;4998874;28;19914;-77
2023/09/29 00:03:07;;;;;;;;;;;;;;;18.46;62.88;101283.00;5013992;28;19926;-77
2023/09/29 00:05:59;;;;;;;;;;;;;;;18.72;61.71;101282.50;4997158;28;19913;-77
2023/09/29 00:08:51;;;;;;;;;;;;;;;18.54;62.19;101284.03;4997749;28;19914;-77
2023/09/29 00:11:43;;;;;;;;;;;;;;;18.30;63.37;101282.19;4996466;28;20286;-77
2023/09/29 00:14:35;;;;;;;;;;;;;;;18.15;64.31;101278.25;4984029;28;19932;-76
2023/09/29 00:17:27;;;;;;;;;;;;;;;18.27;63.88;101280.97;4995058;28;19921;-76
2023/09/29 00:20:23;;;;;;;;;;;;;;;18.29;63.61;101284.13;4994320;28;19918;-77
2023/09/29 00:23:15;;;;;;;;;;;;;;;17.94;65.11;101272.97;4998875;28;19914;-77
2023/09/29 00:26:07;;;;;;;;;;;;;;;17.96;65.30;101267.13;4997957;28;19914;-76
2023/09/29 00:28:59;;;;;;;;;;;;;;;17.95;65.39;101265.53;4994600;28;19918;-77
2023/09/29 00:31:51;;;;;;;;;;;;;;;18.03;65.07;101263.78;4998537;28;20374;-77
2023/09/29 00:34:44;;;;;;;;;;;;;;;18.08;64.80;101266.28;4995067;28;19917;-77
2023/09/29 00:37:36;;;;;;;;;;;;;;;18.16;64.31;101266.09;4994195;28;19918;-77
2023/09/29 00:40:28;;;;;;;;;;;;;;;18.21;64.28;101270.53;4996965;28;19917;-77
2023/09/29 00:43:20;;;;;;;;;;;;;;;18.14;64.19;101265.66;4994680;28;19914;-76
2023/09/29 00:46:12;;;;;;;;;;;;;;;18.05;64.76;101264.22;4984369;28;20375;-76
2023/09/29 00:49:04;;;;;;;;;;;;;;;18.17;63.85;101266.91;4994205;28;19918;-76
2023/09/29 00:51:56;;;;;;;;;;;;;;;18.22;63.67;101266.66;4991967;28;20371;-76
2023/09/29 00:54:48;;;;;;;;;;;;;;;18.12;63.63;101267.16;4993927;28;20398;-77
2023/09/29 00:57:38;;;;;;;;;;;;;;;18.15;63.46;101256.25;4991683;28;19922;-76
2023/09/29 01:00:31;;;;;;;;;;;;;;;18.14;63.63;101259.34;4997076;28;19914;-76
2023/09/29 01:03:23;;;;;;;;;;;;;;;18.10;63.60;101256.50;4994375;28;19917;-77
2023/09/29 01:06:14;;;;;;;;;;;;;;;18.07;63.62;101259.16;4992702;28;19913;-76
2023/09/29 01:09:06;;;;;;;;;;;;;;;17.92;64.52;101255.22;4996337;28;20383;-76
2023/09/29 01:11:58;;;;;;;;;;;;;;;17.80;64.61;101250.56;4993862;28;19913;-77
2023/09/29 01:14:50;;;;;;;;;;;;;;;17.63;65.08;101250.88;4992245;28;19922;-76
2023/09/29 01:17:42;;;;;;;;;;;;;;;17.75;64.53;101253.56;4995718;28;19918;-77
2023/09/29 01:20:34;;;;;;;;;;;;;;;17.74;64.34;101253.91;4993873;28;19922;-77
2023/09/29 01:23:24;;;;;;;;;;;;;;;17.52;65.05;101252.50;4992361;28;20386;-76
2023/09/29 01:26:13;;;;;;;;;;;;;;;17.62;64.76;101260.28;4981999;28;19914;-77
2023/09/29 01:29:05;;;;;;;;;;;;;;;17.67;64.55;101250.97;4996043;28;19918;-77
2023/09/29 01:31:57;;;;;;;;;;;;;;;17.49;65.10;101250.44;4972969;28;19917;-77
2023/09/29 01:34:49;;;;;;;;;;;;;;;17.46;65.18;101251.13;4974536;28;19918;-77
2023/09/29 01:37:41;;;;;;;;;;;;;;;17.45;64.95;101246.78;4962193;28;19930;-77
2023/09/29 01:40:34;;;;;;;;;;;;;;;17.42;64.92;101251.00;4975857;28;19914;-77
2023/09/29 01:43:26;;;;;;;;;;;;;;;17.64;64.17;101238.72;4981215;28;19917;-77
2023/09/29 01:46:18;;;;;;;;;;;;;;;17.69;63.74;101238.47;4976216;28;19914;-75
2023/09/29 01:49:10;;;;;;;;;;;;;;;17.84;63.37;101243.22;4974404;28;19918;-77
2023/09/29 01:52:02;;;;;;;;;;;;;;;17.95;63.19;101238.81;4971079;28;19914;-77
2023/09/29 01:54:55;;;;;;;;;;;;;;;17.88;63.41;101241.34;4980480;28;19914;-77
2023/09/29 01:57:48;;;;;;;;;;;;;;;17.75;64.02;101237.06;4981508;28;19918;-77
2023/09/29 02:00:39;;;;;;;;;;;;;;;17.51;64.98;101248.13;4985183;28;20383;-77
2023/09/29 02:03:32;;;;;;;;;;;;;;;17.44;65.25;101240.47;4968976;28;19913;-78
2023/09/29 02:06:24;;;;;;;;;;;;;;;17.36;65.35;101246.94;4985485;28;19914;-77
2023/09/29 02:09:15;;;;;;;;;;;;;;;17.21;65.72;101241.34;4979830;28;19918;-77
2023/09/29 02:12:08;;;;;;;;;;;;;;;17.14;66.20;101239.19;4968916;28;19918;-78
2023/09/29 02:15:01;;;;;;;;;;;;;;;17.10;66.30;101244.56;4979148;28;20293;-77
2023/09/29 02:17:53;;;;;;;;;;;;;;;17.14;66.20;101236.44;4983299;28;19918;-77
2023/09/29 02:20:46;;;;;;;;;;;;;;;17.27;65.56;101248.22;4980348;28;19937;-77
2023/09/29 02:23:39;;;;;;;;;;;;;;;17.30;65.69;101244.75;4978028;28;20227;-77
2023/09/29 02:26:29;;;;;;;;;;;;;;;17.32;65.59;101247.97;4968257;28;19918;-77
2023/09/29 02:29:20;;;;;;;;;;;;;;;17.47;65.22;101247.25;4977778;28;20654;-77
2023/09/29 02:32:13;;;;;;;;;;;;;;;17.43;65.12;101249.06;4982958;28;19913;-78
2023/09/29 02:35:05;;;;;;;;;;;;;;;17.51;65.08;101250.88;4978856;28;20523;-77
2023/09/29 02:37:55;;;;;;;;;;;;;;;17.48;65.25;101251.56;4965469;28;20391;-77
2023/09/29 02:40:50;;;;;;;;;;;;;;;17.42;65.26;101244.75;4979151;28;19925;-76
2023/09/29 02:43:42;;;;;;;;;;;;;;;17.36;65.64;101251.63;4978982;28;19918;-77
2023/09/29 02:46:34;;;;;;;;;;;;;;;17.33;66.08;101241.31;4978950;28;19918;-77
2023/09/29 02:49:26;;;;;;;;;;;;;;;17.32;66.12;101242.47;4983632;28;19918;-77
2023/09/29 02:52:19;;;;;;;;;;;;;;;17.42;65.94;101242.00;4967390;28;19914;-77
2023/09/29 02:55:14;;;;;;;;;;;;;;;17.33;66.25;101238.56;4979577;28;19914;-77
2023/09/29 02:58:12;;;;;;;;;;;;;;;17.05;67.31;101236.56;4982105;28;19918;-77
2023/09/29 03:01:04;;;;;;;;;;;;;;;16.88;68.37;101241.50;4977860;28;19917;-77
2023/09/29 03:03:58;;;;;;;;;;;;;;;16.72;68.99;101249.63;4977473;28;19914;-77
2023/09/29 03:06:50;;;;;;;;;;;;;;;16.76;67.98;101247.78;4977711;28;19914;-78
2023/09/29 03:09:42;;;;;;;;;;;;;;;16.47;69.22;101242.50;4977382;28;19918;-78
2023/09/29 03:12:34;;;;;;;;;;;;;;;16.58;68.62;101239.00;4977881;28;19917;-78
2023/09/29 03:15:24;;;;;;;;;;;;;;;16.64;68.66;101245.06;4995748;28;19921;-77
2023/09/29 03:18:17;;;;;;;;;;;;;;;16.74;67.93;101238.31;4999139;28;19917;-77
2023/09/29 03:21:09;;;;;;;;;;;;;;;16.80;67.35;101240.50;4985058;28;19913;-77
2023/09/29 03:24:01;;;;;;;;;;;;;;;16.70;67.80;101238.19;4995427;28;19922;-77
2023/09/29 03:26:53;;;;;;;;;;;;;;;16.81;67.63;101236.56;4998308;28;19917;-76
2023/09/29 03:29:45;;;;;;;;;;;;;;;17.02;66.51;101236.44;4994417;28;19914;-77
2023/09/29 03:32:37;;;;;;;;;;;;;;;17.04;66.36;101228.66;4986003;28;19913;-76
2023/09/29 03:35:29;;;;;;;;;;;;;;;17.07;66.17;101226.00;4994276;28;19914;-77
2023/09/29 03:38:21;;;;;;;;;;;;;;;17.08;66.01;101232.31;4981844;28;19917;-77
2023/09/29 03:41:13;;;;;;;;;;;;;;;17.02;66.37;101228.19;4999800;28;19913;-77
2023/09/29 03:44:05;;;;;;;;;;;;;;;16.95;66.95;101231.53;4997351;28;19914;-78
2023/09/29 03:46:57;;;;;;;;;;;;;;;17.03;67.02;101227.06;4997641;28;19917;-77
2023/09/29 03:49:52;;;;;;;;;;;;;;;17.14;66.31;101232.88;4999413;28;19914;-77
2023/09/29 03:52:44;;;;;;;;;;;;;;;17.14;66.44;101227.38;4995583;28;19914;-77
2023/09/29 03:55:36;;;;;;;;;;;;;;;17.22;66.78;101227.25;4995512;28;20530;-77
2023/09/29 03:58:28;;;;;;;;;;;;;;;17.32;66.75;101232.25;4995547;28;20569;-77
2023/09/29 04:01:20;;;;;;;;;;;;;;;17.48;66.01;101237.81;4996190;28;20294;-77
2023/09/29 04:04:13;;;;;;;;;;;;;;;17.38;66.45;101230.88;4995863;28;19914;-77
2023/09/29 04:07:05;;;;;;;;;;;;;;;17.30;66.98;101233.75;4995668;28;19913;-76
2023/09/29 04:09:57;;;;;;;;;;;;;;;17.30;67.05;101237.31;4996388;28;20302;-76
2023/09/29 04:12:49;;;;;;;;;;;;;;;17.31;67.38;101238.91;4999303;28;19918;-77
2023/09/29 04:15:40;;;;;;;;;;;;;;;17.10;67.88;101243.78;4993321;28;20382;-76
2023/09/29 04:18:32;;;;;;;;;;;;;;;17.00;68.42;101247.00;4986462;28;19917;-77
2023/09/29 04:21:24;;;;;;;;;;;;;;;16.95;68.57;101248.03;4991339;28;19945;-76
2023/09/29 04:24:16;;;;;;;;;;;;;;;17.02;68.30;101242.75;4994031;28;19913;-77
2023/09/29 04:27:08;;;;;;;;;;;;;;;16.92;68.40;101245.16;4995901;28;19918;-77
2023/09/29 04:30:00;;;;;;;;;;;;;;;16.89;68.53;101248.59;4981885;28;20287;-76
2023/09/29 04:32:52;;;;;;;;;;;;;;;16.96;68.24;101240.59;4999723;28;19913;-76
2023/09/29 04:35:44;;;;;;;;;;;;;;;16.91;68.21;101238.88;4993980;28;19913;-76
2023/09/29 04:38:35;;;;;;;;;;;;;;;16.74;68.67;101241.84;4994975;28;20295;-77
2023/09/29 04:41:27;;;;;;;;;;;;;;;16.71;69.17;101247.25;4993528;28;19918;-77
2023/09/29 04:44:19;;;;;;;;;;;;;;;16.77;68.28;101249.41;4994037;28;19913;-77
2023/09/29 04:47:11;;;;;;;;;;;;;;;16.96;67.68;101249.63;4994277;28;19914;-77
2023/09/29 04:50:03;;;;;;;;;;;;;;;17.08;67.06;101252.34;4997371;28;19913;-77
2023/09/29 04:52:53;;;;;;;;;;;;;;;17.10;66.97;101255.56;4988788;28;19914;-77
2023/09/29 04:55:41;;;;;;;;;;;;;;;17.09;67.07;101259.47;4981490;28;19914;-77
2023/09/29 04:58:33;;;;;;;;;;;;;;;17.05;67.31;101258.56;4989143;28;19917;-77
2023/09/29 05:01:26;;;;;;;;;;;;;;;17.05;67.23;101263.25;4981140;28;19917;-76
2023/09/29 05:04:18;;;;;;;;;;;;;;;17.29;66.21;101256.91;4993347;28;19918;-77
2023/09/29 05:07:10;;;;;;;;;;;;;;;17.26;66.23;101258.41;4992625;28;19918;-76
2023/09/29 05:10:03;;;;;;;;;;;;;;;17.21;66.18;101255.09;4993332;28;19913;-77
2023/09/29 05:12:53;;;;;;;;;;;;;;;17.16;66.58;101256.13;4997720;28;19913;-77
2023/09/29 05:15:45;;;;;;;;;;;;;;;17.04;66.75;101261.63;4993982;28;19914;-77
2023/09/29 05:18:37;;;;;;;;;;;;;;;17.03;67.03;101260.03;4991647;28;20297;-77
2023/09/29 05:21:29;;;;;;;;;;;;;;;16.81;68.06;101264.03;4998489;28;19914;-76
2023/09/29 05:24:21;;;;;;;;;;;;;;;16.89;67.66;101265.88;4990948;28;19917;-77
2023/09/29 05:27:13;;;;;;;;;;;;;;;16.86;67.68;101265.78;4992546;28;19913;-77
2023/09/29 05:30:06;;;;;;;;;;;;;;;16.66;68.53;101271.03;4994705;28;19933;-77
2023/09/29 05:32:58;;;;;;;;;;;;;;;16.80;68.41;101278.94;4991770;28;19917;-77
2023/09/29 05:35:50;;;;;;;;;;;;;;;16.82;68.51;101279.38;5004799;28;19913;-77
2023/09/29 05:38:42;;;;;;;;;;;;;;;17.01;67.38;101278.81;4992875;28;20286;-77
2023/09/29 05:41:35;;;;;;;;;;;;;;;17.20;66.66;101280.97;5010836;28;20282;-76
2023/09/29 05:44:27;;;;;;;;;;;;;;;17.03;67.62;101287.50;4991885;28;19918;-77
2023/09/29 05:47:16;;;;;;;;;;;;;;;17.14;67.93;101288.66;4992872;28;19922;-77
2023/09/29 05:50:08;;;;;;;;;;;;;;;17.30;67.24;101291.50;4996881;28;20406;-76
2023/09/29 05:53:00;;;;;;;;;;;;;;;17.22;67.43;101297.94;4994635;28;19917;-76
2023/09/29 05:55:52;;;;;;;;;;;;;;;17.40;67.10;101299.25;4991742;28;19914;-77
2023/09/29 05:58:44;;;;;;;;;;;;;;;17.60;66.57;101294.78;5009487;28;19918;-77
2023/09/29 06:01:36;;;;;;;;;;;;;;;17.66;66.49;101305.19;4993676;28;19918;-77
2023/09/29 06:04:27;;;;;;;;;;;;;;;17.67;66.00;101298.53;4992103;28;19917;-76
2023/09/29 06:07:19;;;;;;;;;;;;;;;17.71;65.96;101307.69;4995301;28;19917;-77
2023/09/29 06:10:11;;;;;;;;;;;;;;;17.88;65.51;101307.38;4992486;28;20374;-77
2023/09/29 06:13:03;;;;;;;;;;;;;;;18.06;64.78;101307.91;4990960;28;19913;-77
2023/09/29 06:15:55;;;;;;;;;;;;;;;18.24;65.40;101314.69;4993136;28;19913;-77
2023/09/29 06:18:47;;;;;;;;;;;;;;;18.29;66.20;101314.44;4994557;28;19918;-77
2023/09/29 06:21:39;;;;;;;;;;;;;;;18.53;65.54;101316.25;4995279;28;19917;-77
2023/09/29 06:24:31;;;;;;;;;;;;;;;18.51;65.60;101315.00;4992567;28;19914;-76
2023/09/29 06:27:23;;;;;;;;;;;;;;;18.77;65.06;101327.13;4993375;28;20370;-76
2023/09/29 06:30:12;;;;;;;;;;;;;;;18.89;64.57;101323.50;4985966;28;19914;-77
2023/09/29 06:33:04;;;;;;;;;;;;;;;19.00;63.89;101334.75;4992698;28;19914;-76
2023/09/29 06:35:57;;;;;;;;;;;;;;;19.14;63.90;101333.16;4992292;28;19914;-76
2023/09/29 06:38:49;;;;;;;;;;;;;;;19.32;62.84;101339.06;4995968;28;19921;-77
2023/09/29 06:41:41;;;;;;;;;;;;;;;19.68;62.42;101342.66;4996103;28;19913;-77
2023/09/29 06:44:32;;;;;;;;;;;;;;;19.69;62.56;101347.03;4995225;28;19917;-75
2023/09/29 06:47:24;;;;;;;;;;;;;;;19.66;63.49;101345.78;4996568;28;19913;-76
2023/09/29 06:50:13;;;;;;;;;;;;;;;19.77;63.43;101341.28;4996695;28;19914;-77
2023/09/29 06:53:05;;;;;;;;;;;;;;;19.77;63.55;101355.09;4995975;28;19914;-78
2023/09/29 06:55:57;;;;;;;;;;;;;;;19.70;64.25;101345.88;4983529;28;19914;-77
2023/09/29 06:58:50;;;;;;;;;;;;;;;19.77;63.72;101340.47;4996112;28;19918;-76
2023/09/29 07:01:42;;;;;;;;;;;;;;;19.83;63.87;101339.84;4995493;28;19913;-76
2023/09/29 07:04:34;;;;;;;;;;;;;;;19.94;63.21;101343.63;4996894;28;19921;-76
2023/09/29 07:07:26;;;;;;;;;;;;;;;20.09;62.74;101341.94;4994925;28;19913;-76
2023/09/29 07:10:18;;;;;;;;;;;;;;;20.44;63.19;101341.88;4982137;28;19914;-75
2023/09/29 07:13:10;;;;;;;;;;;;;;;20.91;61.46;101341.50;4982290;28;19918;-74
2023/09/29 07:16:03;;;;;;;;;;;;;;;21.24;60.08;101341.66;4990123;28;19914;-74
2023/09/29 07:18:55;;;;;;;;;;;;;;;21.46;59.49;101336.44;4996947;28;19918;-74
2023/09/29 07:21:47;;;;;;;;;;;;;;;21.55;58.67;101336.97;4996993;28;19914;-74
2023/09/29 07:24:39;;;;;;;;;;;;;;;21.74;58.05;101334.06;4991158;28;19921;-75
2023/09/29 07:27:31;;;;;;;;;;;;;;;21.82;57.18;101341.28;4992478;28;20334;-75
2023/09/29 07:30:23;;;;;;;;;;;;;;;21.64;57.61;101343.00;4975689;28;20298;-73
2023/09/29 07:33:15;;;;;;;;;;;;;;;21.84;57.39;101343.69;5000319;28;19921;-75
2023/09/29 07:36:07;;;;;;;;;;;;;;;21.99;56.67;101348.28;4984419;28;19914;-76
2023/09/29 07:38:59;;;;;;;;;;;;;;;21.92;56.26;101351.72;4997226;28;19926;-78
2023/09/29 07:41:51;;;;;;;;;;;;;;;22.08;56.66;101352.34;4993709;28;19913;-77
2023/09/29 07:44:47;;;;;;;;;;;;;;;22.36;55.27;101354.63;4993638;28;19918;-77
2023/09/29 07:47:40;;;;;;;;;;;;;;;22.37;55.23;101355.41;4991937;28;19918;-78
2023/09/29 07:50:33;;;;;;;;;;;;;;;22.50;54.44;101359.53;4991807;28;19914;-77
2023/09/29 07:53:22;;;;;;;;;;;;;;;22.28;54.64;101354.94;4993129;28;19922;-78
2023/09/29 07:56:14;;;;;;;;;;;;;;;22.38;54.57;101355.06;4997453;28;19933;-77
2023/09/29 07:59:06;;;;;;;;;;;;;;;22.43;54.40;101362.22;4988612;28;19918;-77
2023/09/29 08:01:58;;;;;;;;;;;;;;;22.68;53.80;101363.25;4993686;28;19914;-77
2023/09/29 08:04:50;;;;;;;;;;;;;;;22.89;53.03;101371.81;4985330;28;19937;-76
2023/09/29 08:07:42;;;;;;;;;;;;;;;22.96;53.13;101365.50;5012309;28;19913;-79
2023/09/29 08:10:34;;;;;;;;;;;;;;;22.81;52.76;101372.91;4993822;28;19917;-76
2023/09/29 08:13:26;;;;;;;;;;;;;;;22.97;52.61;101380.97;4992753;28;19917;-78
2023/09/29 08:16:18;;;;;;;;;;;;;;;23.15;51.82;101372.81;5010754;28;19913;-77
2023/09/29 08:19:10;;;;;;;;;;;;;;;23.30;50.81;101377.28;4993012;28;19921;-78
2023/09/29 08:22:02;;;;;;;;;;;;;;;23.08;50.42;101378.31;5010129;28;19918;-77
2023/09/29 08:24:54;;;;;;;;;;;;;;;23.34;51.10;101386.44;4976922;28;19914;-78
2023/09/29 08:27:44;;;;;;;;;;;;;;;23.35;51.36;101393.59;4979399;28;19918;-76
2023/09/29 08:30:36;;;;;;;;;;;;;;;23.35;51.01;101388.84;4987851;28;19918;-77
2023/09/29 08:33:28;;;;;;;;;;;;;;;23.37;50.92;101391.22;4985856;28;20298;-77
2023/09/29 08:36:20;;;;;;;;;;;;;;;23.48;50.61;101389.34;4984822;28;19918;-78
2023/09/29 08:39:10;;;;;;;;;;;;;;;23.56;50.56;101390.19;4972550;28;19918;-76
2023/09/29 08:42:05;;;;;;;;;;;;;;;23.58;49.93;101399.72;4989303;28;19914;-76
2023/09/29 08:45:00;;;;;;;;;;;;;;;23.71;49.32;101395.44;4978744;28;20377;-78
2023/09/29 08:47:52;;;;;;;;;;;;;;;23.71;48.64;101398.22;4986270;28;19918;-77
2023/09/29 08:50:48;;;;;;;;;;;;;;;23.68;47.83;101398.97;4984572;28;19914;-77
2023/09/29 08:53:41;;;;;;;;;;;;;;;23.74;45.83;101400.22;4983984;28;19914;-76
2023/09/29 08:56:33;;;;;;;;;;;;;;;23.77;46.27;101407.00;4979454;28;19914;-77
2023/09/29 08:59:25;;;;;;;;;;;;;;;23.91;46.99;101411.81;4972236;28;19918;-77
2023/09/29 09:02:20;;;;;;;10.18;3.10;;;;;;;24.00;46.98;101406.69;4972807;28;20412;-79
2023/09/29 09:05:19;;;;;;;6.07;2.92;;;;;;;23.88;46.06;101413.38;4972666;28;20050;-80
2023/09/29 09:08:21;;;;;;;14.85;3.80;;;;;;;23.92;45.59;101407.88;4972165;28;20542;-80
2023/09/29 09:11:15;;;;;;;18.52;3.80;;;;;;;23.93;43.63;101404.66;4973519;28;20053;-80
2023/09/29 09:14:10;;;;;;;5.65;2.80;;;;;;;24.09;43.61;101409.91;4975723;28;20416;-80
2023/09/29 09:17:06;;;;;;;3.33;2.55;;;;;;;24.18;42.01;101404.81;4971938;28;20062;-80
2023/09/29 09:20:01;;;;;;;10.00;3.20;;;;;;;24.31;41.78;101408.84;4972450;28;20050;-80
2023/09/29 09:23:05;;;;;;;4.85;2.33;;;;;;;24.21;42.15;101404.84;4975563;28;20050;-80
2023/09/29 09:25:59;;;;;;;7.38;3.78;;;;;;;24.37;42.83;101407.28;4972991;28;20054;-80
2023/09/29 09:28:54;;;;;;;5.22;2.55;;;;;;;24.39;41.91;101404.91;4976319;28;20408;-80
2023/09/29 09:31:51;;;;;;;7.10;3.10;;;;;;;24.50;41.91;101405.72;4961015;28;20535;-82
2023/09/29 09:34:45;;;;;;;5.90;2.85;;;;;;;24.65;41.50;101396.22;4971305;28;20057;-81
2023/09/29 09:37:39;;;;;;;7.43;3.20;;;;;;;24.80;40.15;101407.38;4972762;28;20045;-81
2023/09/29 09:40:31;;;;;;;8.80;2.75;;;;;;;24.77;40.69;101395.06;4973356;28;20050;-81
2023/09/29 09:43:28;;;;;;;6.35;2.53;;;;;;;24.91;40.30;101389.53;4971111;28;20527;-81
2023/09/29 09:46:19;;;;;;;28.75;5.57;;;;;;;25.09;39.33;101392.34;4985892;28;20049;-80
2023/09/29 09:49:15;;;;;;;11.57;4.70;;;;;;;24.94;39.57;101393.53;4987908;28;20399;-80
2023/09/29 09:52:12;;;;;;;15.32;3.42;;;;;;;24.93;39.23;101397.50;4990567;28;20053;-80
2023/09/29 09:55:17;;;;;;;9.05;3.03;;;;;;;25.06;37.95;101387.53;4976754;28;20062;-80
2023/09/29 09:58:12;;;;;;;16.10;4.10;;;;;;;25.19;38.17;101391.53;4962324;28;20058;-80
2023/09/29 10:01:06;;;;;;;12.65;4.75;;;;;;;25.16;37.29;101383.97;4972043;28;20069;-80
2023/09/29 10:04:01;;;;;;;9.65;3.30;;;;;;;25.24;37.53;101393.91;4957469;28;20053;-80
2023/09/29 10:06:56;;;;;;;4.40;2.85;;;;;;;25.10;37.78;101382.78;4971024;28;20054;-80
2023/09/29 10:09:51;;;;;;;11.45;3.78;;;;;;;25.32;38.25;101378.00;4972849;28;20062;-82
2023/09/29 10:12:54;;;;;;;12.57;2.67;;;;;;;25.48;37.32;101386.72;4975857;28;20408;-80
2023/09/29 10:15:58;;;;;;;9.98;2.80;;;;;;;25.68;36.39;101381.53;4974786;28;20054;-81
2023/09/29 10:19:18;;;;;;;7.90;2.70;;;;;;;25.63;37.23;101387.50;4974489;28;20050;-80
2023/09/29 10:22:21;;;;;;;7.15;2.72;;;;;;;25.76;37.24;101385.88;4976244;28;20062;-80
2023/09/29 10:25:19;;;;;;;8.23;2.95;;;;;;;25.70;37.63;101382.72;4975955;28;20058;-80
2023/09/29 10:28:14;;;;;;;17.48;4.05;;;;;;;25.89;38.66;101378.69;4963737;28;20050;-80
2023/09/29 10:31:31;;;;;;;6.05;2.58;;;;;;;26.09;37.43;101377.00;4975372;28;20045;-80
2023/09/29 10:34:26;;;;;;;9.57;2.80;;;;;;;26.02;38.04;101379.81;4973879;28;20062;-80
2023/09/29 10:37:20;;;;;;;5.93;2.70;;;;;;;26.05;37.75;101376.25;4961349;28;20050;-80
2023/09/29 10:40:24;;;;;;;6.00;2.55;;;;;;;26.78;36.61;101374.22;4974082;28;20069;-81
2023/09/29 10:43:21;;;;;;;6.10;3.10;;;;;;;26.84;36.23;101371.78;4973902;28;20066;-82
2023/09/29 10:46:15;;;;;;;13.38;3.40;;;;;;;26.71;36.28;101370.72;4974208;28;20049;-80
2023/09/29 10:49:10;;;;;;;6.85;2.78;;;;;;;26.59;35.98;101365.59;4975002;28;20038;-80
2023/09/29 10:52:02;;;;;;;10.27;3.38;;;;;;;26.72;36.36;101369.47;4975017;28;20050;-80
2023/09/29 10:54:58;;;;;;;13.73;2.70;;;;;;;27.43;34.66;101357.75;4976811;28;20050;-80
2023/09/29 10:57:59;;;;;;;10.40;3.08;;;;;;;27.86;34.40;101355.28;4961880;28;20620;-80
2023/09/29 11:00:53;;;;;;;5.75;2.72;;;;;;;31.03;29.56;101355.47;4964767;28;20412;-80
2023/09/29 11:03:48;;;;;;;16.33;2.38;;;;;;;36.08;22.28;101359.44;4973265;28;20058;-80
2023/09/29 11:06:54;;;;;;;12.25;2.63;;;;;;;37.72;20.42;101367.03;4980073;28;20049;-81
2023/09/29 11:09:48;;;;;;;7.28;2.60;;;;;;;38.63;19.19;101366.78;4974421;28;20053;-80
2023/09/29 11:12:46;;;;;;;15.25;2.33;;;;;;;39.20;18.33;101360.59;4977518;28;20057;-81
2023/09/29 11:15:42;;;;;;;6.30;2.35;;;;;;;39.00;18.59;101354.91;4989309;28;20515;-82
2023/09/29 11:18:37;;;;;;;16.00;2.60;;;;;;;38.57;18.37;101348.84;4982691;28;20062;-81
2023/09/29 11:21:35;;;;;;;13.07;2.45;;;;;;;40.98;16.37;101359.31;4993670;28;20052;-81
2023/09/29 11:24:39;;;;;;;10.85;2.70;;;;;;;40.73;17.09;101343.91;4987080;28;20514;-81
2023/09/29 11:27:33;;;;;;;3.55;2.63;;;;;;;38.75;18.21;101342.13;4994243;28;20045;-80
2023/09/29 11:30:28;;;;;;;6.82;2.88;;;;;;;38.28;18.56;101331.84;4986256;28;20693;-81
2023/09/29 11:33:25;;;;;;;6.82;2.60;;;;;;;40.23;17.38;101340.72;4993142;28;20573;-83
2023/09/29 11:36:26;;;;;;;225.52;12.73;;;;;;;45.97;12.85;101347.66;4999620;28;20045;-81
2023/09/29 11:39:22;;;;;;;4.10;2.60;;;;;;;42.50;14.77;101337.00;4994396;28;20038;-81
2023/09/29 11:42:17;;;;;;;10.57;2.47;;;;;;;43.70;13.84;101329.69;4992865;28;20045;-81
2023/09/29 11:45:10;;;;;;;3.05;2.47;;;;;;;41.11;15.52;101328.25;4994130;28;20427;-82
2023/09/29 11:48:04;;;;;;;10.75;2.97;;;;;;;40.30;16.08;101314.56;4993412;28;20045;-81
2023/09/29 11:50:56;;;;;;;8.90;2.63;;;;;;;40.45;16.02;101311.56;4994851;28;20061;-79
2023/09/29 11:53:51;;;;;;;7.18;2.47;;;;;;;45.80;12.08;101332.78;5002299;28;20041;-82
2023/09/29 11:56:45;;;;;;;14.00;3.10;;;;;;;42.26;14.90;101313.88;4997457;28;20049;-82
2023/09/29 11:59:35;;;;;;;8.02;2.47;;;;;;;46.97;11.33;101328.50;4988061;28;20073;-81
2023/09/29 12:02:30;;;;;;;8.40;2.60;;;;;;;42.69;13.86;101311.47;4988342;28;20053;-81
2023/09/29 12:05:24;;;;;;;4.80;2.20;;;;;;;41.42;15.10;101304.47;4985376;28;20045;-82
2023/09/29 12:08:20;;;;;;;6.03;2.28;;;;;;;41.37;15.54;101305.22;4992118;28;20053;-82
2023/09/29 12:11:15;;;;;;;7.15;2.78;;;;;;;43.12;13.33;101299.59;4973655;28;20054;-82
2023/09/29 12:14:09;;;;;;;11.75;2.85;;;;;;;40.89;15.04;101282.50;4973162;28;20053;-82
2023/09/29 12:17:01;;;;;;;6.85;2.42;;;;;;;42.38;13.82;101292.53;4960580;28;20058;-82
2023/09/29 12:19:56;;;;;;;5.82;2.78;;;;;;;45.84;12.11;101302.38;4977195;28;20046;-82
2023/09/29 12:22:51;;;;;;;12.40;2.45;;;;;;;40.32;15.67;101289.19;4970896;28;20042;-82
2023/09/29 12:25:43;;;;;;;4.30;2.08;;;;;;;40.62;15.76;101277.44;4980298;28;20450;-82
2023/09/29 12:28:39;;;;;;;4.00;2.65;;;;;;;41.53;15.31;101278.81;4975807;28;20042;-82
2023/09/29 12:31:31;;;;;;;14.52;3.25;;;;;;;40.65;15.54;101279.28;4973255;28;20407;-82
2023/09/29 12:34:23;;;;;;;3.47;2.42;;;;;;;42.76;13.87;101276.59;4976625;28;20045;-82
2023/09/29 12:37:18;;;;;;;5.97;2.78;;;;;;;42.54;14.63;101273.78;4976536;28;20165;-82
2023/09/29 12:40:14;;;;;;;7.88;3.25;;;;;;;38.87;17.22;101262.13;4974373;28;20054;-83
2023/09/29 12:43:06;;;;;;;7.95;2.75;;;;;;;39.90;16.45;101261.41;4989892;28;20050;-82
2023/09/29 12:46:01;;;;;;;6.15;2.88;;;;;;;40.91;16.12;101262.78;4959432;28;20054;-80
2023/09/29 12:48:56;;;;;;;5.55;2.95;;;;;;;39.38;17.36;101257.03;4977228;28;20061;-82
2023/09/29 12:51:50;;;;;;;9.80;2.35;;;;;;;41.67;15.86;101259.84;4971910;28;20055;-81
2023/09/29 12:54:45;;;;;;;6.00;2.70;;;;;;;38.88;18.10;101249.50;4972134;28;20054;-81
2023/09/29 12:57:39;;;;;;;3.97;2.50;;;;;;;40.95;16.35;101257.59;4972704;28;20046;-81
2023/09/29 13:00:34;;;;;;;9.07;2.55;;;;;;;42.11;15.85;101254.09;4973442;28;20046;-82
2023/09/29 13:03:29;;;;;;;7.28;2.70;;;;;;;42.41;14.54;101251.47;4962922;28;20046;-82
2023/09/29 13:06:23;;;;;;;12.00;3.25;;;;;;;44.77;13.32;101249.88;4974444;28;20053;-81
2023/09/29 13:09:15;;;;;;;5.18;2.55;;;;;;;44.23;12.88;101249.97;4972589;28;20046;-81
2023/09/29 13:12:10;;;;;;;19.10;2.80;;;;;;;39.12;17.04;101237.06;4975488;28;20054;-81
2023/09/29 13:15:05;;;;;;;6.95;2.83;;;;;;;39.92;16.96;101230.34;4972173;28;20046;-81
2023/09/29 13:17:59;;;;;;;11.27;2.78;;;;;;;39.42;17.18;101229.91;4977368;28;20049;-82
2023/09/29 13:20:54;;;;;;;14.18;3.00;;;;;;;43.93;13.81;101237.78;4990549;28;20065;-82
2023/09/29 13:23:49;;;;;;;3.85;2.25;;;;;;;43.08;14.37;101225.41;4990012;28;20053;-82
2023/09/29 13:26:44;;;;;;;6.95;2.53;;;;;;;41.12;15.78;101235.63;4994038;28;20050;-82
2023/09/29 13:29:38;;;;;;;7.20;2.72;;;;;;;42.06;15.48;101229.16;4991896;28;20057;-81
2023/09/29 13:32:33;;;;;;;5.85;2.75;;;;;;;39.68;17.58;101224.16;4996533;28;20045;-82
2023/09/29 13:35:27;;;;;;;9.18;2.88;;;;;;;44.52;13.66;101228.25;4987123;28;20045;-82
2023/09/29 13:38:22;;;;;;;16.48;3.55;;;;;;;43.27;13.66;101229.19;4976593;28;20534;-83
2023/09/29 13:41:17;;;;;;;5.28;2.38;;;;;;;40.82;15.88;101223.06;4984530;28;20069;-82
2023/09/29 13:44:11;;;;;;;7.10;3.00;;;;;;;39.39;17.24;101216.69;4981100;28;20046;-81
2023/09/29 13:47:06;;;;;;;12.73;3.58;;;;;;;38.49;18.15;101208.41;4984041;28;20046;-82
2023/09/29 13:50:00;;;;;;;6.40;2.97;;;;;;;39.44;17.62;101215.16;4990802;28;20529;-83
2023/09/29 13:52:55;;;;;;;7.07;3.08;;;;;;;38.71;18.64;101205.03;4989653;28;20058;-81
2023/09/29 13:55:50;;;;;;;11.35;3.40;;;;;;;37.21;20.19;101204.28;4976069;28;20415;-82
2023/09/29 13:58:44;;;;;;;36.72;4.85;;;;;;;40.73;17.03;101206.97;4990611;28;20450;-82
2023/09/29 14:01:39;;;;;;;8.68;3.33;;;;;;;39.54;17.74;101200.25;4992921;28;20049;-82
2023/09/29 14:04:34;;;;;;;12.18;4.35;;;;;;;39.18;18.26;101198.84;4993875;28;20057;-82
2023/09/29 14:07:29;;;;;;;9.70;4.00;;;;;;;42.43;14.99;101193.72;4994429;28;20046;-83
2023/09/29 14:10:23;;;;;;;6.85;4.05;;;;;;;36.65;20.28;101179.72;4980156;28;20045;-82
2023/09/29 14:13:18;;;;;;;6.43;3.88;;;;;;;37.93;19.55;101167.81;4969599;28;20049;-82
2023/09/29 14:16:10;;;;;;;24.55;4.38;;;;;;;36.49;21.00;101173.69;4991912;28;20061;-82